Terminal Aerodrome Forecast
Issued by NWS Louisville, KY

Home | Current Version | Previous Version | Text Only | Print | Product List | Glossary On
Versions: 1 2 3 4 5 6 7 8 9 10 11 12
830
FTUS43 KLMK 241733
TAFBWG
TAF
KBWG 241733Z 2418/2518 22009KT P6SM FEW150 SCT250
     FM250700 22011KT P6SM SCT150 BKN250 WS018/22042KT
     FM251100 25009KT P6SM BKN110
     FM251700 30007KT P6SM FEW060 BKN150=

USA.gov is the U.S. government's official web portal to all federal, state and local government web resources and services.